KMCN/MCN METAR and TAF weather

Enter ICAO airport designator
Station Type Date Time Source
KMCN METAR 2022/01/29 09:53 UTC NOAA

KMCN 290953Z AUTO 31018G33KT 10SM SCT047 OVC055 01/M07 A3006 RMK AO2 PK WND 30033/0948 SLP180 T00061067


Station Type Date Time Source
KMCN Decoded METAR 2022/01/29 09:53 UTC NOAA

MIDDLE GEORGIA REGIONAL AIRPORT , GA, United States (KMCN) 32-41N 83-39W 109M
Jan 29, 2022 - 04:53 AM EST / 2022.01.29 0953 UTC
Wind: from the NW (310 degrees) at 21 MPH (18 KT) gusting to 38 MPH (33 KT):0
Visibility: 10 mile(s):0
Sky conditions: overcast
Temperature: 33.1 F (0.6 C)
Windchill: 21 F (-6 C):1
Dew Point: 19.9 F (-6.7 C)
Relative Humidity: 58%
Pressure (altimeter): 30.06 in. Hg (1017 hPa)
ob: KMCN 290953Z AUTO 31018G33KT 10SM SCT047 OVC055 01/M07 A3006 RMK AO2 PK WND 30033/0948 SLP180 T00061067
cycle: 10

Station Type Date Time Source
KMCN TAF 2022/01/29 08:33 UTC NOAA

TAF
AMD KMCN 290731Z 2908/3006 33014G24KT P6SM FEW060
FM291500 32016G27KT P6SM SKC
FM292200 32010G20KT P6SM SKC
FM300000 31008KT P6SM SKC

Example: see airport list